Airport View

Enter AWOS ICAO identifier for current METAR.

ex. KFNL

KSUN 191947Z 21012G24KT 10SM SCT140 21/03 A2992

19 Jun 2019 19:59

Frequency: 128.225

Phone: 208-788-9213

Other Area AWOS: KJER - KSNT - KLLJ - KTWF

TAF KSUN 191720Z 1918/2024 13011KT P6SM SCT120 FM192100 23020G30KT P6SM SKC FM200300 31011KT P6SM SKC FM201900 26018G28KT P6SM BKN120